createdAt,value
2023-04-23T00:01:12.591Z,100770.21
2023-04-23T00:03:43.276Z,100768.85
2023-04-23T00:06:14.804Z,100769.96
2023-04-23T00:08:43.002Z,100768.81
2023-04-23T00:11:11.353Z,100764.86
2023-04-23T00:13:41.734Z,100762.58
2023-04-23T00:16:12.447Z,100761.56
2023-04-23T00:18:40.621Z,100756.61
2023-04-23T00:21:10.908Z,100756.48
2023-04-23T00:23:42.570Z,100753.95
2023-04-23T00:26:11.204Z,100749.83
2023-04-23T00:28:46.703Z,100747.67
2023-04-23T00:31:19.525Z,100745.07
2023-04-23T00:33:54.186Z,100744.20
2023-04-23T00:36:37.761Z,100738.30
2023-04-23T00:39:06.019Z,100734.48
2023-04-23T00:41:38.934Z,100733.33
2023-04-23T00:44:08.489Z,100730.70
2023-04-23T00:46:37.252Z,100728.72
2023-04-23T00:49:05.285Z,100727.02
2023-04-23T00:51:33.385Z,100724.42
2023-04-23T00:54:01.390Z,100724.56
2023-04-23T00:56:29.490Z,100721.52
2023-04-23T00:58:58.960Z,100723.27
2023-04-23T01:01:27.134Z,100719.84
2023-04-23T01:03:56.808Z,100718.15
2023-04-23T01:06:25.971Z,100716.40
2023-04-23T01:08:56.654Z,100718.52
2023-04-23T01:11:25.039Z,100718.40
2023-04-23T01:13:53.870Z,100715.41
2023-04-23T01:16:25.953Z,100714.63
2023-04-23T01:18:54.070Z,100712.02
2023-04-23T01:21:22.154Z,100712.36
2023-04-23T01:23:50.424Z,100709.44
2023-04-23T01:26:20.143Z,100711.77
2023-04-23T01:28:48.240Z,100704.30
2023-04-23T01:31:17.162Z,100705.95
2023-04-23T01:33:47.335Z,100702.94
2023-04-23T01:36:15.433Z,100700.74
2023-04-23T01:38:43.507Z,100696.83
2023-04-23T01:41:12.083Z,100698.86
2023-04-23T01:43:41.751Z,100698.59
2023-04-23T01:46:11.733Z,100696.26
2023-04-23T01:48:39.796Z,100698.94
2023-04-23T01:51:09.737Z,100698.61
2023-04-23T01:53:38.381Z,100696.40
2023-04-23T01:56:06.731Z,100693.87
2023-04-23T01:58:34.835Z,100691.89
2023-04-23T02:01:03.015Z,100690.45
2023-04-23T02:03:34.283Z,100689.96
2023-04-23T02:06:05.141Z,100688.38
2023-04-23T02:08:34.504Z,100684.40
2023-04-23T02:11:02.579Z,100682.73
2023-04-23T02:13:30.602Z,100681.56
2023-04-23T02:15:59.002Z,100679.39
2023-04-23T02:18:27.101Z,100680.48
2023-04-23T02:20:57.594Z,100679.18
2023-04-23T02:23:26.230Z,100678.63
2023-04-23T02:25:54.256Z,100677.09
2023-04-23T02:28:29.632Z,100674.05
2023-04-23T02:30:57.855Z,100672.52
2023-04-23T02:33:30.016Z,100672.18
2023-04-23T02:35:58.019Z,100671.69
2023-04-23T02:38:26.068Z,100666.34
2023-04-23T02:40:54.075Z,100666.21
2023-04-23T02:43:22.423Z,100671.20
2023-04-23T02:45:50.458Z,100666.63
2023-04-23T02:48:18.921Z,100671.61
2023-04-23T02:50:47.066Z,100669.98
2023-04-23T02:53:15.032Z,100667.52
2023-04-23T02:55:43.034Z,100666.27
2023-04-23T02:58:11.171Z,100666.01
2023-04-23T03:00:39.687Z,100666.85
2023-04-23T03:03:08.407Z,100665.07
2023-04-23T03:05:38.118Z,100662.45
2023-04-23T03:08:06.260Z,100662.67
2023-04-23T03:10:34.180Z,100660.95
2023-04-23T03:13:02.321Z,100659.88
2023-04-23T03:15:30.679Z,100657.88
2023-04-23T03:17:58.694Z,100659.05
2023-04-23T03:20:28.270Z,100659.22
2023-04-23T03:22:56.394Z,100658.64
2023-04-23T03:25:25.990Z,100654.58
2023-04-23T03:27:55.104Z,100654.59
2023-04-23T03:30:23.211Z,100658.69
2023-04-23T03:32:51.408Z,100651.02
2023-04-23T03:35:19.801Z,100649.32
2023-04-23T03:37:48.577Z,100650.94
2023-04-23T03:40:16.814Z,100649.21
2023-04-23T03:42:44.987Z,100649.48
2023-04-23T03:45:15.145Z,100649.42
2023-04-23T03:47:44.082Z,100649.13
2023-04-23T03:50:15.130Z,100647.89
2023-04-23T03:52:43.708Z,100641.24
2023-04-23T03:55:18.022Z,100644.91
2023-04-23T03:57:47.530Z,100640.90
2023-04-23T04:00:26.312Z,100639.85
2023-04-23T04:02:54.841Z,100641.51
2023-04-23T04:05:24.176Z,100640.52
2023-04-23T04:07:54.871Z,100641.39
2023-04-23T04:10:22.845Z,100638.59
2023-04-23T04:12:53.036Z,100639.45
2023-04-23T04:15:21.108Z,100641.45
2023-04-23T04:17:49.103Z,100641.83
2023-04-23T04:20:17.156Z,100643.08
2023-04-23T04:22:46.862Z,100641.02
2023-04-23T04:25:15.220Z,100638.43
2023-04-23T04:27:43.918Z,100639.86
2023-04-23T04:30:12.162Z,100640.38
2023-04-23T04:32:43.218Z,100643.16
2023-04-23T04:35:14.636Z,100638.27
2023-04-23T04:37:44.210Z,100640.52
2023-04-23T04:40:13.283Z,100635.20
2023-04-23T04:42:41.266Z,100635.71
2023-04-23T04:45:10.363Z,100643.98
2023-04-23T04:47:38.471Z,100646.27
2023-04-23T04:50:07.584Z,100639.60
2023-04-23T04:52:36.200Z,100637.21
2023-04-23T04:55:06.943Z,100635.06
2023-04-23T04:57:34.867Z,100632.19
2023-04-23T05:00:05.326Z,100625.16
2023-04-23T05:02:33.648Z,100618.10
2023-04-23T05:05:02.377Z,100615.84
2023-04-23T05:07:30.360Z,100617.73
2023-04-23T05:09:58.795Z,100619.98
2023-04-23T05:12:26.819Z,100617.10
2023-04-23T05:14:54.866Z,100613.02
2023-04-23T05:17:22.907Z,100612.19
2023-04-23T05:19:51.543Z,100614.87
2023-04-23T05:22:19.560Z,100616.48
2023-04-23T05:24:47.512Z,100618.20
2023-04-23T05:27:15.555Z,100618.45
2023-04-23T05:29:43.560Z,100618.17
2023-04-23T05:32:11.741Z,100616.90
2023-04-23T05:34:40.190Z,100613.70
2023-04-23T05:37:08.739Z,100607.77
2023-04-23T05:39:38.787Z,100604.02
2023-04-23T05:42:06.757Z,100605.10
2023-04-23T05:44:34.889Z,100605.66
2023-04-23T05:47:02.977Z,100609.29
2023-04-23T05:49:31.420Z,100610.02
2023-04-23T05:51:59.553Z,100612.55
2023-04-23T05:54:27.921Z,100609.67
2023-04-23T05:57:17.871Z,100610.97
2023-04-23T05:59:47.297Z,100606.88
2023-04-23T06:02:15.616Z,100605.86
2023-04-23T06:04:43.969Z,100604.05
2023-04-23T06:07:15.958Z,100599.00
2023-04-23T06:09:43.834Z,100594.98
2023-04-23T06:12:12.140Z,100593.33
2023-04-23T06:14:41.043Z,100589.83
2023-04-23T06:17:09.235Z,100592.40
2023-04-23T06:19:37.323Z,100586.27
2023-04-23T06:22:06.659Z,100582.29
2023-04-23T06:24:35.142Z,100581.91
2023-04-23T06:27:03.207Z,100583.98
2023-04-23T06:29:34.962Z,100584.45
2023-04-23T06:32:06.305Z,100581.63
2023-04-23T06:34:34.285Z,100577.33
2023-04-23T06:37:02.309Z,100578.06
2023-04-23T06:39:30.307Z,100581.80
2023-04-23T06:41:58.331Z,100579.29
2023-04-23T06:44:51.950Z,100576.67
2023-04-23T06:47:20.355Z,100572.27
2023-04-23T06:49:48.414Z,100574.61
2023-04-23T06:52:16.925Z,100566.34
2023-04-23T06:54:45.218Z,100568.08
2023-04-23T06:57:13.335Z,100568.27
2023-04-23T06:59:41.308Z,100570.94
2023-04-23T07:02:09.340Z,100565.73
2023-04-23T07:04:37.633Z,100561.09
2023-04-23T07:07:06.466Z,100560.93
2023-04-23T07:09:34.579Z,100558.80
2023-04-23T07:12:03.623Z,100553.48
2023-04-23T07:14:32.290Z,100556.77
2023-04-23T07:17:00.930Z,100554.20
2023-04-23T07:19:29.058Z,100554.13
2023-04-23T07:21:57.071Z,100548.95
2023-04-23T07:24:26.694Z,100551.38
2023-04-23T07:26:54.850Z,100542.09
2023-04-23T07:29:24.064Z,100535.73
2023-04-23T07:31:52.934Z,100538.11
2023-04-23T07:34:21.056Z,100536.02
2023-04-23T07:36:49.129Z,100534.98
2023-04-23T07:39:17.079Z,100531.89
2023-04-23T07:41:45.235Z,100531.98
2023-04-23T07:44:13.231Z,100529.68
2023-04-23T07:46:41.213Z,100527.01
2023-04-23T07:49:09.240Z,100525.86
2023-04-23T07:51:37.230Z,100524.84
2023-04-23T07:54:05.380Z,100520.12
2023-04-23T07:56:33.507Z,100517.30
2023-04-23T07:59:01.601Z,100513.13
2023-04-23T08:01:29.948Z,100507.87
2023-04-23T08:04:00.946Z,100508.80
2023-04-23T08:06:35.204Z,100504.00
2023-04-23T08:09:07.112Z,100501.03
2023-04-23T08:11:35.305Z,100493.37
2023-04-23T08:14:04.042Z,100495.00
2023-04-23T08:16:32.113Z,100491.56
2023-04-23T08:19:05.290Z,100488.36
2023-04-23T08:21:35.051Z,100487.72
2023-04-23T08:24:04.577Z,100484.31
2023-04-23T08:26:32.692Z,100485.27
2023-04-23T08:29:01.004Z,100487.08
2023-04-23T08:31:29.334Z,100483.09
2023-04-23T08:33:57.816Z,100481.98
2023-04-23T08:36:26.924Z,100477.58
2023-04-23T08:38:55.252Z,100474.38
2023-04-23T08:41:23.917Z,100475.66
2023-04-23T08:43:58.288Z,100472.70
2023-04-23T08:46:26.376Z,100474.14
2023-04-23T08:48:54.469Z,100471.42
2023-04-23T08:51:23.131Z,100471.20
2023-04-23T08:53:52.656Z,100466.60
2023-04-23T08:56:21.124Z,100459.77
2023-04-23T08:58:49.176Z,100457.74
2023-04-23T09:01:18.007Z,100456.66
2023-04-23T09:03:46.551Z,100445.27
2023-04-23T09:06:14.717Z,100445.48
2023-04-23T09:08:42.767Z,100441.06
2023-04-23T09:11:10.899Z,100441.10
2023-04-23T09:13:42.335Z,100439.45
2023-04-23T09:16:11.149Z,100437.70
2023-04-23T09:18:39.234Z,100434.31
2023-04-23T09:21:07.592Z,100427.64
2023-04-23T09:23:42.076Z,100432.04
2023-04-23T09:26:10.728Z,100428.67
2023-04-23T09:28:38.939Z,100424.81
2023-04-23T09:31:07.122Z,100423.89
2023-04-23T09:33:35.849Z,100417.55
2023-04-23T09:36:12.021Z,100417.27
2023-04-23T09:38:41.489Z,100415.05
2023-04-23T09:41:26.137Z,100416.64
2023-04-23T09:43:55.130Z,100416.69
2023-04-23T09:46:33.492Z,100407.72
2023-04-23T09:49:04.638Z,100407.36
2023-04-23T09:51:33.452Z,100400.23
2023-04-23T09:54:02.757Z,100401.91
2023-04-23T09:56:33.086Z,100392.08
2023-04-23T09:59:01.511Z,100385.81
2023-04-23T10:01:33.263Z,100386.52
2023-04-23T10:04:01.806Z,100378.30
2023-04-23T10:06:44.184Z,100377.77
2023-04-23T10:09:14.921Z,100378.10
2023-04-23T10:11:43.158Z,100371.88
2023-04-23T10:14:19.880Z,100372.52
2023-04-23T10:16:59.404Z,100372.52
2023-04-23T10:19:29.166Z,100371.80
2023-04-23T10:22:18.659Z,100371.52
2023-04-23T10:24:52.552Z,100368.91
2023-04-23T10:29:53.200Z,100362.23
2023-04-23T10:32:21.378Z,100359.67
2023-04-23T10:34:49.692Z,100355.51
2023-04-23T10:37:19.540Z,100347.54
2023-04-23T10:39:50.344Z,100349.23
2023-04-23T10:42:18.930Z,100341.41
2023-04-23T10:44:58.055Z,100335.84
2023-04-23T10:47:29.780Z,100339.92
2023-04-23T10:49:58.374Z,100343.33
2023-04-23T10:52:26.808Z,100332.91
2023-04-23T10:54:58.706Z,100333.00
2023-04-23T10:57:29.142Z,100329.84
2023-04-23T11:00:02.044Z,100329.55
2023-04-23T11:02:30.295Z,100329.84
2023-04-23T11:04:59.092Z,100320.18
2023-04-23T11:07:33.330Z,100320.02
2023-04-23T11:10:15.214Z,100315.09
2023-04-23T11:12:44.378Z,100315.32
2023-04-23T11:15:14.471Z,100309.11
2023-04-23T11:17:47.803Z,100314.02
2023-04-23T11:20:19.698Z,100310.38
2023-04-23T11:22:51.358Z,100312.18
2023-04-23T11:25:24.357Z,100305.92
2023-04-23T11:27:53.691Z,100300.14
2023-04-23T11:30:24.260Z,100303.25
2023-04-23T11:32:53.417Z,100302.71
2023-04-23T11:35:24.634Z,100302.90
2023-04-23T11:37:52.797Z,100298.99
2023-04-23T11:40:21.094Z,100294.63
2023-04-23T11:42:50.710Z,100287.57
2023-04-23T11:45:20.683Z,100286.16
2023-04-23T11:47:56.025Z,100292.23
2023-04-23T11:50:28.781Z,100282.23
2023-04-23T11:52:57.048Z,100282.00
2023-04-23T11:55:25.024Z,100283.41
2023-04-23T11:57:53.257Z,100288.15
2023-04-23T12:00:23.257Z,100287.70
2023-04-23T12:02:55.970Z,100284.10
2023-04-23T12:05:33.128Z,100279.38
2023-04-23T12:08:17.594Z,100274.86
2023-04-23T12:10:53.430Z,100270.36
2023-04-23T12:13:22.786Z,100272.11
2023-04-23T12:15:56.752Z,100266.97
2023-04-23T12:18:39.389Z,100267.94
2023-04-23T12:21:13.783Z,100263.11
2023-04-23T12:23:44.998Z,100255.58
2023-04-23T12:26:15.738Z,100255.98
2023-04-23T12:28:50.597Z,100250.04
2023-04-23T12:31:21.328Z,100250.45
2023-04-23T12:33:58.610Z,100249.91
2023-04-23T12:36:31.332Z,100244.48
2023-04-23T12:39:19.329Z,100241.44
2023-04-23T12:41:47.581Z,100241.77
2023-04-23T12:44:15.807Z,100240.59
2023-04-23T12:46:43.850Z,100239.95
2023-04-23T12:49:11.836Z,100238.21
2023-04-23T12:51:39.910Z,100236.95
2023-04-23T12:54:07.886Z,100233.94
2023-04-23T12:56:40.450Z,100233.80
2023-04-23T12:59:08.824Z,100235.80
2023-04-23T13:01:40.808Z,100232.61
2023-04-23T13:04:08.906Z,100237.58
2023-04-23T13:06:36.923Z,100222.17
2023-04-23T13:09:05.557Z,100223.42
2023-04-23T13:11:33.746Z,100217.02
2023-04-23T13:14:01.784Z,100220.28
2023-04-23T13:16:31.135Z,100210.75
2023-04-23T13:19:00.208Z,100212.69
2023-04-23T13:21:28.266Z,100209.86
2023-04-23T13:23:57.258Z,100216.19
2023-04-23T13:26:25.575Z,100211.97
2023-04-23T13:28:53.511Z,100206.69
2023-04-23T13:31:21.605Z,100204.65
2023-04-23T13:33:49.698Z,100202.04
2023-04-23T13:36:18.400Z,100198.52
2023-04-23T13:38:46.854Z,100196.92
2023-04-23T13:41:14.783Z,100192.25
2023-04-23T13:43:42.940Z,100192.11
2023-04-23T13:46:11.425Z,100187.63
2023-04-23T13:48:39.475Z,100191.73
2023-04-23T13:51:21.383Z,100194.17
2023-04-23T13:53:55.529Z,100185.77
2023-04-23T13:56:23.530Z,100185.31
2023-04-23T13:58:53.127Z,100188.69
2023-04-23T14:01:21.120Z,100183.02
2023-04-23T14:03:49.219Z,100183.52
2023-04-23T14:06:17.272Z,100176.83
2023-04-23T14:08:45.249Z,100180.91
2023-04-23T14:11:13.246Z,100182.41
2023-04-23T14:13:41.183Z,100184.82
2023-04-23T14:16:09.296Z,100181.16
2023-04-23T14:18:37.332Z,100179.46
2023-04-23T14:21:05.451Z,100173.63
2023-04-23T14:23:51.131Z,100175.23
2023-04-23T14:26:46.709Z,100182.96
2023-04-23T14:29:38.059Z,100180.69
2023-04-23T14:32:06.675Z,100185.38
2023-04-23T14:34:37.776Z,100185.14
2023-04-23T14:37:06.217Z,100188.40
2023-04-23T14:39:34.788Z,100191.41
2023-04-23T14:42:03.105Z,100191.71
2023-04-23T14:44:31.603Z,100198.92
2023-04-23T14:46:59.644Z,100204.02
2023-04-23T14:49:27.712Z,100205.77
2023-04-23T14:51:55.844Z,100210.30
2023-04-23T14:54:24.237Z,100197.48
2023-04-23T14:56:52.424Z,100207.07
2023-04-23T14:59:21.443Z,100205.52
2023-04-23T15:01:49.592Z,100214.47
2023-04-23T15:04:17.737Z,100220.02
2023-04-23T15:06:45.973Z,100223.30
2023-04-23T15:09:15.929Z,100228.83
2023-04-23T15:11:44.080Z,100233.58
2023-04-23T15:14:45.258Z,100235.98
2023-04-23T15:17:13.458Z,100232.80
2023-04-23T15:19:41.761Z,100234.52
2023-04-23T15:22:10.113Z,100234.52
2023-04-23T15:24:38.079Z,100238.32
2023-04-23T15:27:08.267Z,100237.60
2023-04-23T15:29:36.343Z,100240.33
2023-04-23T15:32:04.994Z,100247.14
2023-04-23T15:34:33.927Z,100247.89
2023-04-23T15:37:02.139Z,100251.69
2023-04-23T15:39:30.285Z,100251.86
2023-04-23T15:41:58.335Z,100254.05
2023-04-23T15:44:26.405Z,100254.25
2023-04-23T15:46:54.401Z,100254.66
2023-04-23T15:49:22.395Z,100257.21
2023-04-23T15:51:50.427Z,100254.08
2023-04-23T15:54:18.420Z,100262.30
2023-04-23T15:56:46.572Z,100262.25
2023-04-23T15:59:14.562Z,100259.64
2023-04-23T16:01:42.839Z,100265.00
2023-04-23T16:04:12.421Z,100261.83
2023-04-23T16:06:40.826Z,100263.65
2023-04-23T16:09:09.233Z,100262.79
2023-04-23T16:11:37.974Z,100263.05
2023-04-23T16:14:06.385Z,100263.78
2023-04-23T16:16:34.886Z,100263.92
2023-04-23T16:19:03.390Z,100260.09
2023-04-23T16:21:32.320Z,100258.43
2023-04-23T16:24:00.452Z,100263.94
2023-04-23T16:26:29.181Z,100266.30
2023-04-23T16:31:29.425Z,100259.91
2023-04-23T16:33:57.562Z,100260.03
2023-04-23T16:36:25.794Z,100263.55
2023-04-23T16:38:54.050Z,100261.06
2023-04-23T16:41:22.382Z,100259.08
2023-04-23T16:43:50.345Z,100255.14
2023-04-23T16:46:18.402Z,100257.87
2023-04-23T16:48:46.376Z,100256.00
2023-04-23T16:51:14.396Z,100259.40
2023-04-23T16:53:42.438Z,100256.22
2023-04-23T16:56:10.528Z,100253.35
2023-04-23T16:58:38.510Z,100257.58
2023-04-23T17:01:06.573Z,100258.44
2023-04-23T17:03:36.656Z,100249.95
2023-04-23T17:06:12.386Z,100251.27
2023-04-23T17:08:40.534Z,100245.98
2023-04-23T17:11:08.648Z,100243.87
2023-04-23T17:13:36.757Z,100244.17
2023-04-23T17:16:04.880Z,100247.59
2023-04-23T17:18:33.008Z,100247.48
2023-04-23T17:21:01.043Z,100246.03
2023-04-23T17:23:29.020Z,100248.27
2023-04-23T17:25:57.153Z,100249.86
2023-04-23T17:28:25.317Z,100247.94
2023-04-23T17:30:55.930Z,100246.52
2023-04-23T17:33:24.098Z,100250.37
2023-04-23T17:35:52.590Z,100247.92
2023-04-23T17:38:20.898Z,100243.92
2023-04-23T17:40:50.231Z,100243.43
2023-04-23T17:43:18.878Z,100242.20
2023-04-23T17:45:47.855Z,100241.61
2023-04-23T17:48:16.082Z,100246.93
2023-04-23T17:50:44.223Z,100243.05
2023-04-23T17:53:12.421Z,100244.67
2023-04-23T17:55:40.700Z,100244.96
2023-04-23T17:58:20.911Z,100246.10
2023-04-23T18:00:51.041Z,100248.31
2023-04-23T18:03:20.677Z,100254.98
2023-04-23T18:05:48.958Z,100263.48
2023-04-23T18:08:19.457Z,100264.56
2023-04-23T18:10:47.492Z,100271.44
2023-04-23T18:13:15.585Z,100270.19
2023-04-23T18:15:46.039Z,100271.00
2023-04-23T18:18:14.220Z,100272.85
2023-04-23T18:20:47.389Z,100273.23
2023-04-23T18:23:15.984Z,100278.59
2023-04-23T18:25:44.078Z,100277.89
2023-04-23T18:28:12.403Z,100280.59
2023-04-23T18:30:40.469Z,100283.41
2023-04-23T18:33:10.916Z,100282.81
2023-04-23T18:35:41.357Z,100289.30
2023-04-23T18:38:23.692Z,100295.48
2023-04-23T18:40:51.868Z,100298.40
2023-04-23T18:43:20.478Z,100295.74
2023-04-23T18:45:48.532Z,100291.76
2023-04-23T18:48:35.163Z,100286.29
2023-04-23T18:51:09.173Z,100282.45
2023-04-23T18:53:39.058Z,100291.66
2023-04-23T18:56:07.134Z,100291.13
2023-04-23T18:58:36.424Z,100292.55
2023-04-23T19:01:08.110Z,100297.20
2023-04-23T19:03:37.130Z,100299.41
2023-04-23T19:06:07.995Z,100304.07
2023-04-23T19:08:36.152Z,100300.02
2023-04-23T19:11:04.288Z,100305.47
2023-04-23T19:13:32.378Z,100305.26
2023-04-23T19:16:00.543Z,100305.63
2023-04-23T19:18:28.730Z,100305.55
2023-04-23T19:21:01.199Z,100305.84
2023-04-23T19:23:30.247Z,100304.95
2023-04-23T19:25:58.375Z,100301.11
2023-04-23T19:28:26.698Z,100302.70
2023-04-23T19:30:54.998Z,100301.77
2023-04-23T19:33:23.794Z,100300.54
2023-04-23T19:35:52.461Z,100302.66
2023-04-23T19:38:20.766Z,100298.58
2023-04-23T19:40:49.723Z,100289.97
2023-04-23T19:43:17.890Z,100287.08
2023-04-23T19:45:46.776Z,100286.55
2023-04-23T19:48:14.973Z,100285.44
2023-04-23T19:50:43.358Z,100287.74
2023-04-23T19:53:11.581Z,100287.35
2023-04-23T19:55:39.712Z,100279.25
2023-04-23T19:58:08.120Z,100268.41
2023-04-23T20:00:41.557Z,100268.84
2023-04-23T20:03:10.454Z,100275.81
2023-04-23T20:05:39.114Z,100275.16
2023-04-23T20:08:15.524Z,100278.14
2023-04-23T20:10:43.798Z,100274.16
2023-04-23T20:13:13.890Z,100275.20
2023-04-23T20:15:41.890Z,100274.64
2023-04-23T20:18:09.944Z,100272.69
2023-04-23T20:20:40.063Z,100272.09
2023-04-23T20:23:08.139Z,100271.23
2023-04-23T20:25:36.568Z,100273.52
2023-04-23T20:28:05.211Z,100277.36
2023-04-23T20:30:33.438Z,100276.38
2023-04-23T20:33:01.777Z,100280.76
2023-04-23T20:35:31.850Z,100282.92
2023-04-23T20:38:01.082Z,100282.98
2023-04-23T20:40:29.153Z,100281.67
2023-04-23T20:42:58.765Z,100276.45
2023-04-23T20:45:26.969Z,100277.47
2023-04-23T20:47:58.388Z,100279.20
2023-04-23T20:50:26.497Z,100274.75
2023-04-23T20:52:54.731Z,100276.63
2023-04-23T20:55:22.674Z,100273.52
2023-04-23T20:57:50.755Z,100270.98
2023-04-23T21:00:20.567Z,100278.36
2023-04-23T21:02:48.664Z,100275.61
2023-04-23T21:05:16.848Z,100274.98
2023-04-23T21:07:44.768Z,100272.35
2023-04-23T21:10:12.974Z,100271.10
2023-04-23T21:12:43.784Z,100273.62
2023-04-23T21:15:12.986Z,100266.70
2023-04-23T21:17:41.145Z,100268.15
2023-04-23T21:20:09.841Z,100268.76
2023-04-23T21:22:37.853Z,100266.33
2023-04-23T21:25:06.297Z,100264.77
2023-04-23T21:27:34.298Z,100265.23
2023-04-23T21:30:15.382Z,100263.55
2023-04-23T21:32:54.439Z,100261.12
2023-04-23T21:35:22.503Z,100259.92
2023-04-23T21:37:51.403Z,100257.09
2023-04-23T21:40:19.795Z,100257.17
2023-04-23T21:42:47.988Z,100257.20
2023-04-23T21:45:16.691Z,100256.27
2023-04-23T21:47:45.723Z,100251.88
2023-04-23T21:50:17.769Z,100252.67
2023-04-23T21:52:46.168Z,100247.67
2023-04-23T21:55:16.294Z,100251.56
2023-04-23T21:57:51.260Z,100251.90
2023-04-23T22:00:28.894Z,100247.25
2023-04-23T22:03:08.656Z,100242.41
2023-04-23T22:05:42.663Z,100238.32
2023-04-23T22:08:17.594Z,100246.80
2023-04-23T22:10:49.911Z,100243.52
2023-04-23T22:13:21.542Z,100246.55
2023-04-23T22:18:49.803Z,100250.60
2023-04-23T22:21:18.715Z,100253.86
2023-04-23T22:23:48.516Z,100250.77
2023-04-23T22:26:18.138Z,100251.67
2023-04-23T22:28:50.582Z,100255.12
2023-04-23T22:31:20.580Z,100250.40
2023-04-23T22:33:50.129Z,100248.14
2023-04-23T22:36:30.659Z,100243.77
2023-04-23T22:39:02.815Z,100238.20
2023-04-23T22:41:33.762Z,100233.33
2023-04-23T22:44:04.052Z,100230.63
2023-04-23T22:46:33.368Z,100230.26
2023-04-23T22:49:03.278Z,100229.16
2023-04-23T22:51:36.544Z,100226.91
2023-04-23T22:54:05.040Z,100232.45
2023-04-23T22:56:38.111Z,100230.43
2023-04-23T22:59:08.544Z,100232.11
2023-04-23T23:01:40.965Z,100226.06
2023-04-23T23:04:10.086Z,100222.68
2023-04-23T23:06:39.850Z,100223.81
2023-04-23T23:09:09.981Z,100218.34
2023-04-23T23:11:39.469Z,100220.60
2023-04-23T23:14:08.886Z,100220.63
2023-04-23T23:16:39.186Z,100219.27
2023-04-23T23:19:08.844Z,100218.91
2023-04-23T23:21:45.772Z,100215.89
2023-04-23T23:24:20.467Z,100217.42
2023-04-23T23:26:51.062Z,100216.96
2023-04-23T23:29:19.835Z,100210.96
2023-04-23T23:31:50.253Z,100213.62
2023-04-23T23:34:18.858Z,100213.77
2023-04-23T23:36:50.658Z,100208.67
2023-04-23T23:39:22.790Z,100208.31
2023-04-23T23:41:51.990Z,100209.01
2023-04-23T23:44:21.304Z,100206.67
2023-04-23T23:46:52.742Z,100206.42
2023-04-23T23:49:21.902Z,100201.11
2023-04-23T23:51:51.324Z,100201.98
2023-04-23T23:54:21.104Z,100198.20
2023-04-23T23:56:55.067Z,100197.42
2023-04-23T23:59:24.527Z,100197.17
